Time,TemperatureF,DewpointF,PressureIn,WindDirection,WindDirectionDegrees,WindSpeedMPH,WindSpeedGustMPH,Humidity,HourlyPrecipIn,Conditions,Clouds,dailyrainin,SoftwareType,DateUTC
2013-04-14 06:22:00,39.0,22.0,-100.00,North,-999,-999.0,-999.0,49,0.00,,,-99.99,,2013-04-14 12:22:00,
2013-04-14 06:32:00,38.0,22.0,-100.00,East,95,6.0,9.0,50,0.00,,,-99.99,,2013-04-14 12:32:00,
2013-04-14 06:42:00,38.0,22.0,-100.00,ESE,110,12.0,16.0,51,0.00,,,-99.99,,2013-04-14 12:42:00,
2013-04-14 06:52:00,37.0,22.0,-100.00,East,85,8.0,19.0,52,0.00,,,-99.99,,2013-04-14 12:52:00,
2013-04-14 07:02:00,37.0,22.0,-100.00,East,90,9.0,19.0,53,0.00,,,-99.99,,2013-04-14 13:02:00,
2013-04-14 07:12:00,37.0,22.0,-100.00,East,80,11.0,19.0,54,0.00,,,-99.99,,2013-04-14 13:12:00,
2013-04-14 07:22:00,37.0,22.0,-100.00,East,85,8.0,20.0,54,0.00,,,-99.99,,2013-04-14 13:22:00,
2013-04-14 07:32:00,37.0,22.0,-100.00,ESE,105,10.0,19.0,54,0.00,,,-99.99,,2013-04-14 13:32:00,
2013-04-14 07:42:00,37.0,23.0,-100.00,ESE,105,11.0,16.0,55,0.00,,,-99.99,,2013-04-14 13:42:00,
2013-04-14 07:52:00,37.0,23.0,-100.00,ESE,110,12.0,17.0,56,0.00,,,-99.99,,2013-04-14 13:52:00,
2013-04-14 08:02:00,37.0,23.0,-100.00,ESE,105,10.0,18.0,56,0.00,,,-99.99,,2013-04-14 14:02:00,
2013-04-14 08:12:00,38.0,24.0,-100.00,East,80,8.0,15.0,56,0.00,,,-99.99,,2013-04-14 14:12:00,
2013-04-14 08:22:00,39.0,24.0,-100.00,ESE,110,9.0,19.0,54,0.00,,,-99.99,,2013-04-14 14:22:00,
2013-04-14 08:32:00,39.0,24.0,-100.00,ESE,105,6.0,18.0,53,0.00,,,-99.99,,2013-04-14 14:32:00,
2013-04-14 08:42:00,39.0,22.0,-100.00,East,95,12.0,23.0,50,0.00,,,-99.99,,2013-04-14 14:42:00,
2013-04-14 08:52:00,39.0,22.0,-100.00,NE,45,12.0,20.0,49,0.00,,,-99.99,,2013-04-14 14:52:00,
2013-04-14 09:02:00,39.0,20.0,-100.00,ENE,75,12.0,27.0,46,0.00,,,-99.99,,2013-04-14 15:02:00,
2013-04-14 09:12:00,39.0,20.0,-100.00,NE,50,12.0,25.0,45,0.00,,,-99.99,,2013-04-14 15:12:00,
2013-04-14 09:22:00,39.0,19.0,-100.00,ENE,60,8.0,25.0,44,0.00,,,-99.99,,2013-04-14 15:22:00,
2013-04-14 09:33:00,39.0,19.0,-100.00,ENE,75,18.0,29.0,43,0.00,,,-99.99,,2013-04-14 15:33:00,
2013-04-14 09:43:00,38.0,18.0,-100.00,ENE,60,18.0,29.0,43,0.00,,,-99.99,,2013-04-14 15:43:00,
2013-04-14 09:52:00,39.0,18.0,-100.00,NE,55,14.0,35.0,43,0.00,,,-99.99,,2013-04-14 15:52:00,
2013-04-14 10:04:00,38.0,18.0,-100.00,ENE,65,14.0,30.0,43,0.00,,,-99.99,,2013-04-14 16:04:00,
2013-04-14 10:13:00,39.0,18.0,-100.00,NE,55,10.0,27.0,42,0.00,,,-99.99,,2013-04-14 16:13:00,
2013-04-14 10:22:00,38.0,17.0,-100.00,ESE,105,13.0,27.0,41,0.00,,,-99.99,,2013-04-14 16:22:00,
2013-04-14 10:32:00,39.0,17.0,-100.00,ENE,70,13.0,27.0,40,0.00,,,-99.99,,2013-04-14 16:32:00,
2013-04-14 10:43:00,39.0,17.0,-100.00,East,80,11.0,23.0,40,0.00,,,-99.99,,2013-04-14 16:43:00,
2013-04-14 10:52:00,39.0,17.0,-100.00,ENE,75,11.0,24.0,39,0.00,,,-99.99,,2013-04-14 16:52:00,
2013-04-14 11:02:00,40.0,17.0,-100.00,ENE,70,11.0,22.0,38,0.00,,,-99.99,,2013-04-14 17:02:00,
2013-04-14 11:12:00,39.0,16.0,-100.00,East,100,12.0,27.0,38,0.00,,,-99.99,,2013-04-14 17:12:00,
2013-04-14 11:22:00,39.0,16.0,-100.00,ENE,70,15.0,25.0,37,0.00,,,-99.99,,2013-04-14 17:22:00,
2013-04-14 11:32:00,40.0,16.0,-100.00,NE,55,17.0,26.0,37,0.00,,,-99.99,,2013-04-14 17:32:00,
2013-04-14 11:42:00,40.0,16.0,-100.00,ENE,70,13.0,25.0,37,0.00,,,-99.99,,2013-04-14 17:42:00,
2013-04-14 11:52:00,40.0,16.0,-100.00,ENE,70,14.0,21.0,37,0.00,,,-99.99,,2013-04-14 17:52:00,
2013-04-14 12:02:00,40.0,16.0,-100.00,NE,50,14.0,27.0,37,0.00,,,-99.99,,2013-04-14 18:02:00,
2013-04-14 12:12:00,41.0,16.0,-100.00,ENE,60,11.0,21.0,36,0.00,,,-99.99,,2013-04-14 18:12:00,
2013-04-14 12:22:00,41.0,16.0,-100.00,East,80,9.0,30.0,36,0.00,,,-99.99,,2013-04-14 18:22:00,
2013-04-14 12:32:00,42.0,17.0,-100.00,NE,55,11.0,21.0,35,0.00,,,-99.99,,2013-04-14 18:32:00,
2013-04-14 12:42:00,42.0,16.0,-100.00,East,90,9.0,20.0,34,0.00,,,-99.99,,2013-04-14 18:42:00,
2013-04-14 12:52:00,43.0,17.0,-100.00,ESE,105,7.0,20.0,35,0.00,,,-99.99,,2013-04-14 18:52:00,
2013-04-14 13:03:00,42.0,16.0,-100.00,East,85,18.0,26.0,34,0.00,,,-99.99,,2013-04-14 19:03:00,
2013-04-14 13:12:00,42.0,16.0,-100.00,East,90,12.0,23.0,33,0.00,,,-99.99,,2013-04-14 19:12:00,
2013-04-14 13:22:00,42.0,16.0,-100.00,East,90,12.0,23.0,33,0.00,,,-99.99,,2013-04-14 19:22:00,
2013-04-14 13:32:00,44.0,16.0,-100.00,ESE,120,9.0,24.0,31,0.00,,,-99.99,,2013-04-14 19:32:00,
2013-04-14 13:42:00,44.0,15.0,-100.00,ENE,60,11.0,28.0,31,0.00,,,-99.99,,2013-04-14 19:42:00,
2013-04-14 13:52:00,44.0,15.0,-100.00,ESE,105,7.0,24.0,30,0.00,,,-99.99,,2013-04-14 19:52:00,
2013-04-14 14:02:00,44.0,14.0,-100.00,East,95,13.0,24.0,29,0.00,,,-99.99,,2013-04-14 20:02:00,
2013-04-14 14:12:00,45.0,15.0,-100.00,ENE,60,11.0,19.0,29,0.00,,,-99.99,,2013-04-14 20:12:00,
2013-04-14 14:22:00,45.0,15.0,-100.00,East,90,12.0,25.0,29,0.00,,,-99.99,,2013-04-14 20:22:00,
2013-04-14 14:32:00,45.0,15.0,-100.00,ENE,70,12.0,32.0,29,0.00,,,-99.99,,2013-04-14 20:32:00,
2013-04-14 14:42:00,45.0,15.0,-100.00,East,90,11.0,25.0,29,0.00,,,-99.99,,2013-04-14 20:42:00,
2013-04-14 14:52:00,45.0,15.0,-100.00,SE,130,13.0,29.0,28,0.00,,,-99.99,,2013-04-14 20:52:00,
2013-04-14 15:02:00,46.0,14.0,-100.00,ESE,105,13.0,25.0,27,0.00,,,-99.99,,2013-04-14 21:02:00,
2013-04-14 15:12:00,46.0,14.0,-100.00,ESE,105,10.0,27.0,27,0.00,,,-99.99,,2013-04-14 21:12:00,
2013-04-14 15:22:00,46.0,14.0,-100.00,ESE,105,10.0,27.0,27,0.00,,,-99.99,,2013-04-14 21:22:00,
2013-04-14 15:33:00,46.0,15.0,-100.00,ESE,110,11.0,24.0,27,0.00,,,-99.99,,2013-04-14 21:33:00,
2013-04-14 15:43:00,45.0,15.0,-100.00,NE,45,11.0,22.0,28,0.00,,,-99.99,,2013-04-14 21:43:00,
2013-04-14 15:53:00,46.0,15.0,-100.00,ESE,105,12.0,24.0,27,0.00,,,-99.99,,2013-04-14 21:53:00,
2013-04-14 16:03:00,47.0,15.0,-100.00,ESE,105,15.0,24.0,27,0.00,,,-99.99,,2013-04-14 22:03:00,
2013-04-14 16:13:00,47.0,15.0,-100.00,SE,145,13.0,20.0,27,0.00,,,-99.99,,2013-04-14 22:13:00,
2013-04-14 16:23:00,46.0,14.0,-100.00,East,100,14.0,27.0,26,0.00,,,-99.99,,2013-04-14 22:23:00,
2013-04-14 16:32:00,47.0,15.0,-100.00,SE,125,9.0,24.0,26,0.00,,,-99.99,,2013-04-14 22:32:00,
2013-04-14 16:43:00,47.0,15.0,-100.00,ESE,120,8.0,24.0,27,0.00,,,-99.99,,2013-04-14 22:43:00,
2013-04-14 16:52:00,48.0,16.0,-100.00,ESE,110,8.0,20.0,27,0.00,,,-99.99,,2013-04-14 22:52:00,
2013-04-14 17:02:00,46.0,15.0,-100.00,ENE,70,9.0,19.0,28,0.00,,,-99.99,,2013-04-14 23:02:00,
2013-04-14 17:12:00,46.0,15.0,-100.00,NE,45,17.0,30.0,29,0.00,,,-99.99,,2013-04-14 23:12:00,
2013-04-14 17:22:00,47.0,17.0,-100.00,NE,35,7.0,21.0,30,0.00,,,-99.99,,2013-04-14 23:22:00,
2013-04-14 17:32:00,46.0,17.0,-100.00,NE,50,6.0,18.0,31,0.00,,,-99.99,,2013-04-14 23:32:00,
2013-04-14 17:42:00,45.0,17.0,-100.00,NE,55,9.0,19.0,32,0.00,,,-99.99,,2013-04-14 23:42:00,
2013-04-14 17:52:00,45.0,17.0,-100.00,ENE,60,12.0,23.0,32,0.00,,,-99.99,,2013-04-14 23:52:00,
2013-04-14 18:02:00,45.0,18.0,-100.00,East,90,9.0,20.0,32,0.00,,,-99.99,,2013-04-15 00:02:00,
2013-04-14 18:12:00,45.0,17.0,-100.00,NE,55,10.0,16.0,32,0.00,,,-99.99,,2013-04-15 00:12:00,
2013-04-14 18:22:00,46.0,18.0,-100.00,ENE,65,9.0,15.0,32,0.00,,,-99.99,,2013-04-15 00:22:00,
2013-04-14 18:32:00,45.0,18.0,-100.00,NE,35,7.0,12.0,33,0.00,,,-99.99,,2013-04-15 00:32:00,
2013-04-14 18:42:00,45.0,18.0,-100.00,NE,35,9.0,14.0,33,0.00,,,-99.99,,2013-04-15 00:42:00,
2013-04-14 18:52:00,44.0,17.0,-100.00,NE,50,4.0,14.0,33,0.00,,,-99.99,,2013-04-15 00:52:00,
2013-04-14 19:02:00,44.0,17.0,-100.00,NE,50,8.0,12.0,33,0.00,,,-99.99,,2013-04-15 01:02:00,
2013-04-14 19:12:00,44.0,17.0,-100.00,East,80,6.0,11.0,33,0.00,,,-99.99,,2013-04-15 01:12:00,
2013-04-14 19:23:00,44.0,17.0,-100.00,East,100,6.0,12.0,33,0.00,,,-99.99,,2013-04-15 01:23:00,
2013-04-14 19:32:00,45.0,17.0,-100.00,ESE,105,8.0,12.0,33,0.00,,,-99.99,,2013-04-15 01:32:00,
2013-04-14 19:42:00,45.0,17.0,-100.00,East,100,7.0,19.0,33,0.00,,,-99.99,,2013-04-15 01:42:00,
2013-04-14 19:50:00,44.0,17.0,-100.00,SE,130,9.0,21.0,33,0.00,,,-99.99,,2013-04-15 01:50:00,
2013-04-14 19:52:00,44.0,17.0,-100.00,ESE,110,12.0,18.0,33,0.00,,,-99.99,,2013-04-15 01:52:00,
2013-04-14 20:02:00,44.0,17.0,-100.00,SE,130,9.0,21.0,33,0.00,,,-99.99,,2013-04-15 02:02:00,
2013-04-14 20:12:00,44.0,17.0,-100.00,SE,130,9.0,21.0,33,0.00,,,-99.99,,2013-04-15 02:12:00,
2013-04-14 20:22:00,44.0,17.0,-100.00,SE,130,9.0,21.0,33,0.00,,,-99.99,,2013-04-15 02:22:00,
2013-04-14 20:32:00,44.0,17.0,-100.00,SE,130,9.0,21.0,33,0.00,,,-99.99,,2013-04-15 02:32:00,
2013-04-14 20:42:00,44.0,17.0,-100.00,SE,130,9.0,21.0,33,0.00,,,-99.99,,2013-04-15 02:42:00,